Terminal Aerodrome Forecast
Issued by NWS Sioux Falls, SD

Home | Current Version | Previous Version | Text Only | Print | Product List | Glossary Off
Versions: 1 2 3 4 5 6 7 8 9 10 11 12 13 14 15 16 17 18 19 20

000
FTUS43 KFSD 242330
TAFHON
TAF
KHON 242330Z 2500/2524 30010KT P6SM -RA OVC030
     FM250200 32018G25KT P6SM -RA OVC020
     FM250400 33020G28KT 3SM -SN OVC010
     FM251000 34014G20KT P6SM OVC015
     FM251900 32008KT P6SM BKN030
     FM252200 VRB03KT P6SM SCT050 BKN200=

USA.gov is the U.S. government's official web portal to all federal, state and local government web resources and services.